createdAt,value
2022-11-29T00:05:56.046Z,2.9732441471571907
2022-11-29T00:17:20.773Z,3.4180602006688963
2022-11-29T00:23:48.671Z,4.648829431438127
2022-11-29T00:44:22.305Z,4.103678929765886
2022-11-29T00:54:25.410Z,2.7357859531772575
2022-11-29T01:06:44.850Z,3.6053511705685617
2022-11-29T01:13:13.898Z,3.0100334448160537
2022-11-29T01:25:49.725Z,3.4949832775919734
2022-11-29T01:41:15.345Z,3.7123745819397995
2022-11-29T01:47:44.363Z,4.1237458193979935
2022-11-29T02:00:13.349Z,4.478260869565218
2022-11-29T02:06:44.219Z,3.9966555183946486
2022-11-29T02:17:52.410Z,3.6923076923076925
2022-11-29T02:26:25.578Z,2.963210702341137
2022-11-29T02:33:00.873Z,4.3879598662207355
2022-11-29T02:48:38.902Z,4.508361204013378
2022-11-29T02:55:12.696Z,3.9531772575250836
2022-11-29T03:01:42.569Z,4.414715719063545
2022-11-29T03:13:19.318Z,3.2642140468227425
2022-11-29T03:20:21.267Z,4.1237458193979935
2022-11-29T03:26:53.054Z,3.347826086956522
2022-11-29T03:35:17.906Z,3.408026755852843
2022-11-29T03:44:33.862Z,3.79933110367893
2022-11-29T03:51:36.469Z,3.4448160535117056
2022-11-29T04:02:45.302Z,2.9364548494983276
2022-11-29T04:11:26.912Z,4.357859531772576
2022-11-29T04:18:43.800Z,3.2842809364548495
2022-11-29T04:25:15.361Z,3.9130434782608696
2022-11-29T04:33:37.923Z,3.802675585284281
2022-11-29T04:40:07.266Z,4.311036789297659
2022-11-29T04:46:36.132Z,3.9163879598662206
2022-11-29T04:53:07.204Z,4.183946488294314
2022-11-29T05:07:14.109Z,2.9096989966555182
2022-11-29T05:13:48.424Z,2.903010033444816
2022-11-29T05:20:19.272Z,3.7926421404682276
2022-11-29T05:26:51.943Z,4.508361204013378
2022-11-29T05:33:37.941Z,4.933110367892977
2022-11-29T05:44:30.089Z,4.093645484949833
2022-11-29T06:10:34.040Z,4.816053511705686
2022-11-29T06:25:28.500Z,4.240802675585284
2022-11-29T06:32:32.575Z,4.521739130434782
2022-11-29T06:39:01.322Z,3.9933110367892977
2022-11-29T06:45:32.565Z,4.431438127090301
2022-11-29T06:58:02.750Z,4.725752508361204
2022-11-29T07:04:33.923Z,4.578595317725752
2022-11-29T07:11:06.770Z,4.722408026755853
2022-11-29T07:17:39.263Z,4.88628762541806
2022-11-29T07:25:48.062Z,4.625418060200669
2022-11-29T07:32:16.575Z,4.474916387959866
2022-11-29T07:38:45.664Z,4.11371237458194
2022-11-29T07:50:49.736Z,4.37123745819398
2022-11-29T07:57:20.995Z,3.290969899665552
2022-11-29T08:03:49.853Z,3.3812709030100336
2022-11-29T08:15:23.648Z,3.7859531772575252
2022-11-29T08:21:51.333Z,3.5217391304347827
2022-11-29T08:28:20.524Z,2.79933110367893
2022-11-29T08:36:07.947Z,3.6956521739130435
2022-11-29T08:47:11.183Z,3.4949832775919734
2022-11-29T08:59:59.663Z,4.719063545150502
2022-11-29T09:07:40.112Z,4.117056856187291
2022-11-29T09:14:08.526Z,3.74247491638796
2022-11-29T09:20:35.932Z,4.080267558528428
2022-11-29T09:27:03.008Z,4.2675585284280935
2022-11-29T09:35:30.832Z,3.745819397993311
2022-11-29T09:43:17.678Z,3.0234113712374584
2022-11-29T09:49:47.064Z,4.214046822742475
2022-11-29T09:56:14.955Z,4.280936454849498
2022-11-29T10:02:43.865Z,4.083612040133779
2022-11-29T10:09:13.108Z,4.688963210702341
2022-11-29T10:16:08.430Z,3.7859531772575252
2022-11-29T10:22:36.929Z,3.789297658862876
2022-11-29T10:29:05.303Z,4.030100334448161
2022-11-29T10:35:33.709Z,3.1237458193979935
2022-11-29T10:42:02.320Z,4.632107023411371
2022-11-29T10:54:55.179Z,3.9665551839464883
2022-11-29T11:01:23.760Z,4.260869565217392
2022-11-29T11:14:59.789Z,4.829431438127091
2022-11-29T11:27:51.754Z,4.2207357859531776
2022-11-29T11:34:20.266Z,4.096989966555184
2022-11-29T11:53:56.498Z,4.585284280936455
2022-11-29T12:05:10.245Z,4.1237458193979935
2022-11-29T12:11:38.455Z,4.384615384615385
2022-11-29T12:18:06.031Z,5.230769230769231
2022-11-29T12:24:33.466Z,3.367892976588629
2022-11-29T12:31:00.867Z,3.6020066889632107
2022-11-29T12:37:28.588Z,3.6053511705685617
2022-11-29T12:43:56.405Z,4.642140468227424
2022-11-29T12:56:49.556Z,4.832775919732441
2022-11-29T13:03:16.979Z,4.280936454849498
2022-11-29T13:09:44.866Z,4.374581939799331
2022-11-29T13:16:17.170Z,5.237458193979933
2022-11-29T13:22:47.838Z,4.471571906354515
2022-11-29T13:29:15.195Z,5.327759197324415
2022-11-29T13:35:42.339Z,4.986622073578595
2022-11-29T13:42:10.283Z,4.638795986622074
2022-11-29T13:49:44.885Z,5.384615384615385
2022-11-29T14:01:51.234Z,6.491638795986622
2022-11-29T14:08:18.841Z,6.969899665551839
2022-11-29T14:25:51.959Z,5.374581939799331
2022-11-29T14:36:15.257Z,7.451505016722408
2022-11-29T14:42:43.931Z,5.635451505016722
2022-11-29T14:49:10.925Z,6.916387959866221
2022-11-29T14:56:59.739Z,6.287625418060201
2022-11-29T15:03:26.861Z,6.7792642140468224
2022-11-29T15:09:55.136Z,6.2207357859531776
2022-11-29T15:19:53.701Z,5.585284280936455
2022-11-29T15:29:45.450Z,6.963210702341137
2022-11-29T15:36:13.181Z,6.588628762541806
2022-11-29T15:42:41.590Z,6.9799331103678925
2022-11-29T15:49:09.216Z,5.936454849498328
2022-11-29T15:55:37.238Z,6.0200668896321075
2022-11-29T16:05:42.385Z,6.632107023411371
2022-11-29T16:12:09.458Z,7.468227424749164
2022-11-29T16:18:38.690Z,6.862876254180602
2022-11-29T16:27:54.752Z,6.468227424749164
2022-11-29T16:39:14.936Z,5.936454849498328
2022-11-29T16:55:15.586Z,8.478260869565217
2022-11-29T17:01:43.928Z,6.491638795986622
2022-11-29T17:17:38.180Z,7.254180602006689
2022-11-29T17:26:53.966Z,8.003344481605351
2022-11-29T17:36:38.241Z,8.107023411371237
2022-11-29T17:43:06.749Z,6.906354515050167
2022-11-29T17:49:35.607Z,7.585284280936455
2022-11-29T17:56:02.944Z,7.070234113712375
2022-11-29T18:02:31.728Z,8.581939799331103
2022-11-29T18:09:00.308Z,9.0
2022-11-29T18:21:55.312Z,7.775919732441472
2022-11-29T18:28:25.560Z,8.307692307692308
2022-11-29T18:34:55.720Z,9.210702341137123
2022-11-29T18:41:23.108Z,8.816053511705686
2022-11-29T18:47:50.186Z,8.010033444816054
2022-11-29T18:54:16.691Z,9.006688963210703
2022-11-29T19:00:43.765Z,8.511705685618729
2022-11-29T19:11:13.496Z,8.762541806020067
2022-11-29T19:17:43.471Z,8.51505016722408
2022-11-29T19:24:11.803Z,8.448160535117056
2022-11-29T19:30:43.587Z,7.792642140468227
2022-11-29T19:37:16.070Z,7.712374581939799
2022-11-29T19:46:34.194Z,8.622073578595318
2022-11-29T19:53:59.389Z,6.826086956521739
2022-11-29T20:06:17.026Z,8.421404682274247
2022-11-29T20:13:38.905Z,7.849498327759197
2022-11-29T20:22:59.396Z,7.849498327759197
2022-11-29T20:29:30.600Z,8.274247491638796
2022-11-29T20:38:33.845Z,9.137123745819398
2022-11-29T20:45:05.732Z,7.090301003344481
2022-11-29T20:51:44.898Z,7.37123745819398
2022-11-29T20:58:28.735Z,7.468227424749164
2022-11-29T21:08:59.588Z,7.525083612040134
2022-11-29T21:15:34.472Z,7.070234113712375
2022-11-29T21:25:18.545Z,7.3244147157190636
2022-11-29T21:31:48.248Z,8.013377926421406
2022-11-29T21:38:19.427Z,7.725752508361204
2022-11-29T21:45:15.226Z,6.234113712374582
2022-11-29T21:51:45.239Z,6.889632107023411
2022-11-29T22:01:00.671Z,5.622073578595318
2022-11-29T22:07:31.813Z,7.170568561872909
2022-11-29T22:19:04.060Z,6.0
2022-11-29T22:25:38.490Z,5.8762541806020065
2022-11-29T22:36:23.142Z,5.408026755852843
2022-11-29T22:43:01.281Z,6.62876254180602
2022-11-29T22:53:07.837Z,6.421404682274248
2022-11-29T23:01:04.362Z,6.558528428093646
2022-11-29T23:13:17.592Z,6.782608695652174
2022-11-29T23:19:56.244Z,7.632107023411371
2022-11-29T23:38:14.647Z,6.6755852842809364
2022-11-29T23:51:03.916Z,7.6923076923076925
2022-11-29T23:57:36.161Z,7.759197324414716
